Winkler County Airport Wink US
ICAO: KINK
IATA: INK
Category: Medium
Scheduled Services: No

Elevation: 2822 ft
TransAlt. 18000 ft.

Airport Communications:
ASOS:118.325
FORT WORTH CNTR:133.1
SAN ANGELO RDO:122.05
CTAF/UNICOM:123

KINK Zoom In..

If you have problems with the map follow the link
https://www.worldairports.se/pages/airport.php?
ICAO=KINK

Runways:

(A) RW 04 length 3514 ft width 100 ft
---- / hdg 42

(B) RW 13 length 5003 ft width 100 ft
---- / hdg 132

(C) RW 22 length 3514 ft width 100 ft
---- / hdg 222

(D) RW 31 length 5003 ft width 100 ft
---- / hdg 312

Location; KINK
Day. 13 / Time. 13.53 Zulu
* Altimeter: 30.01
* Temperature: 07° c. 44.6°f.
* Wind from: 310° Speed 06 kn.
Dewpoint: 02° c.
Visibility: 10 Statute Miles.
Clouds: Clear (automated report).

KINK 131353Z AUTO 31006KT 10SM CLR 07/02 A3001 RMK AO2 SLP148 T00720022


Wind From 310°
Speed 06 kn.

 
 
jpsmedia worldairports.se 2019   terms of use